createdAt,value
2023-01-31T00:01:53.620Z,1.00
2023-01-31T00:04:20.706Z,2.20
2023-01-31T00:06:51.529Z,1.70
2023-01-31T00:09:19.371Z,0.80
2023-01-31T00:11:46.460Z,0.90
2023-01-31T00:14:20.524Z,1.00
2023-01-31T00:16:48.423Z,1.10
2023-01-31T00:19:15.815Z,1.10
2023-01-31T00:21:43.987Z,0.90
2023-01-31T00:24:14.346Z,2.00
2023-01-31T00:26:41.615Z,1.00
2023-01-31T00:29:08.890Z,1.60
2023-01-31T00:31:36.317Z,0.90
2023-01-31T00:34:04.158Z,0.80
2023-01-31T00:36:34.835Z,1.60
2023-01-31T00:39:04.834Z,1.10
2023-01-31T00:44:00.317Z,1.00
2023-01-31T00:46:28.355Z,1.00
2023-01-31T00:48:58.970Z,2.10
2023-01-31T00:51:27.062Z,1.00
2023-01-31T00:53:55.357Z,1.00
2023-01-31T00:56:24.731Z,1.00
2023-01-31T00:58:53.223Z,1.00
2023-01-31T01:01:24.291Z,1.00
2023-01-31T01:03:52.279Z,2.30
2023-01-31T01:06:20.716Z,1.50
2023-01-31T01:08:48.238Z,1.20
2023-01-31T01:11:22.120Z,1.10
2023-01-31T01:13:50.735Z,1.20
2023-01-31T01:16:36.046Z,1.20
2023-01-31T01:19:16.955Z,1.30
2023-01-31T01:24:20.013Z,1.30
2023-01-31T01:26:47.819Z,1.10
2023-01-31T01:29:14.996Z,1.00
2023-01-31T01:31:42.393Z,1.20
2023-01-31T01:34:15.233Z,1.20
2023-01-31T01:36:45.612Z,1.30
2023-01-31T01:39:14.687Z,2.70
2023-01-31T01:41:42.348Z,1.30
2023-01-31T01:44:45.980Z,1.30
2023-01-31T01:47:50.262Z,1.40
2023-01-31T01:50:25.626Z,1.70
2023-01-31T01:53:11.309Z,1.50
2023-01-31T01:55:54.144Z,1.70
2023-01-31T01:58:33.669Z,1.70
2023-01-31T02:01:01.403Z,1.40
2023-01-31T02:03:28.617Z,1.50
2023-01-31T02:06:00.847Z,1.30
2023-01-31T02:08:33.354Z,1.70
2023-01-31T02:11:23.402Z,1.30
2023-01-31T02:13:58.165Z,1.60
2023-01-31T02:16:25.697Z,1.20
2023-01-31T02:18:53.604Z,1.50
2023-01-31T02:21:35.742Z,1.60
2023-01-31T02:24:26.410Z,1.50
2023-01-31T02:27:28.934Z,1.60
2023-01-31T02:30:47.295Z,1.40
2023-01-31T02:33:49.762Z,1.40
2023-01-31T02:36:53.604Z,1.40
2023-01-31T02:39:36.143Z,1.20
2023-01-31T02:42:27.635Z,1.20
2023-01-31T02:45:27.453Z,1.50
2023-01-31T02:48:19.449Z,1.30
2023-01-31T02:51:22.115Z,1.70
2023-01-31T02:54:06.136Z,1.40
2023-01-31T02:56:38.229Z,1.60
2023-01-31T02:59:22.055Z,1.70
2023-01-31T03:01:58.543Z,1.40
2023-01-31T03:04:31.154Z,1.40
2023-01-31T03:07:17.069Z,1.40
2023-01-31T03:10:21.217Z,1.40
2023-01-31T03:13:09.824Z,1.80
2023-01-31T03:16:39.097Z,1.60
2023-01-31T03:19:15.772Z,1.70
2023-01-31T03:21:53.302Z,1.70
2023-01-31T03:24:26.281Z,1.40
2023-01-31T03:26:57.736Z,1.50
2023-01-31T03:29:28.423Z,1.40
2023-01-31T03:32:05.065Z,1.70
2023-01-31T03:34:32.673Z,1.30
2023-01-31T03:37:16.509Z,1.40
2023-01-31T03:40:27.395Z,1.30
2023-01-31T03:43:15.777Z,1.50
2023-01-31T03:45:53.193Z,1.50
2023-01-31T03:48:24.831Z,1.10
2023-01-31T03:50:59.034Z,1.20
2023-01-31T03:53:38.692Z,1.50
2023-01-31T03:56:19.058Z,1.50
2023-01-31T03:58:53.939Z,1.20
2023-01-31T04:01:24.201Z,2.30
2023-01-31T04:04:12.471Z,1.50
2023-01-31T04:06:40.396Z,1.60
2023-01-31T04:09:07.768Z,1.10
2023-01-31T04:11:41.142Z,1.60
2023-01-31T04:14:09.919Z,1.20
2023-01-31T04:19:04.563Z,1.60
2023-01-31T04:21:32.161Z,1.60
2023-01-31T04:23:59.291Z,1.60
2023-01-31T04:26:26.614Z,1.60
2023-01-31T04:28:53.816Z,1.10
2023-01-31T04:31:21.175Z,1.20
2023-01-31T04:33:48.458Z,1.40
2023-01-31T04:36:15.536Z,1.30
2023-01-31T04:38:42.785Z,1.30
2023-01-31T04:41:10.111Z,1.20
2023-01-31T04:43:37.653Z,1.40
2023-01-31T04:46:05.264Z,1.60
2023-01-31T04:48:33.002Z,1.30
2023-01-31T04:51:00.268Z,1.30
2023-01-31T04:53:28.280Z,1.10
2023-01-31T04:55:56.338Z,1.00
2023-01-31T04:58:23.841Z,1.40
2023-01-31T05:00:51.166Z,1.10
2023-01-31T05:03:18.515Z,1.10
2023-01-31T05:05:49.370Z,1.30
2023-01-31T05:08:17.403Z,1.30
2023-01-31T05:10:44.643Z,1.40
2023-01-31T05:13:12.198Z,1.10
2023-01-31T05:15:40.983Z,1.40
2023-01-31T05:18:08.327Z,1.40
2023-01-31T05:20:40.972Z,1.40
2023-01-31T05:23:08.456Z,1.50
2023-01-31T05:25:38.006Z,1.40
2023-01-31T05:28:05.623Z,1.30
2023-01-31T05:30:33.349Z,1.40
2023-01-31T05:33:00.689Z,1.20
2023-01-31T05:35:28.218Z,1.20
2023-01-31T05:37:56.029Z,2.60
2023-01-31T05:40:23.671Z,0.70
2023-01-31T05:42:55.885Z,1.00
2023-01-31T05:45:23.608Z,0.90
2023-01-31T05:47:51.233Z,1.00
2023-01-31T05:50:19.488Z,0.90
2023-01-31T05:52:56.258Z,0.80
2023-01-31T05:55:23.655Z,0.90
2023-01-31T05:57:52.417Z,0.90
2023-01-31T06:00:21.025Z,0.70
2023-01-31T06:02:48.663Z,1.00
2023-01-31T06:05:16.588Z,0.80
2023-01-31T06:07:43.862Z,0.80
2023-01-31T06:10:12.149Z,0.90
2023-01-31T06:12:39.333Z,1.00
2023-01-31T06:15:07.464Z,1.10
2023-01-31T06:17:34.672Z,1.00
2023-01-31T06:20:01.882Z,1.10
2023-01-31T06:22:29.075Z,1.30
2023-01-31T06:24:56.295Z,1.40
2023-01-31T06:27:23.416Z,1.30
2023-01-31T06:29:50.902Z,1.20
2023-01-31T06:34:48.052Z,1.10
2023-01-31T06:37:15.215Z,1.30
2023-01-31T06:39:42.328Z,1.30
2023-01-31T06:42:09.487Z,1.40
2023-01-31T06:44:37.935Z,3.20
2023-01-31T06:47:05.494Z,1.40
2023-01-31T06:49:32.698Z,1.20
2023-01-31T06:52:00.444Z,1.40
2023-01-31T06:54:27.741Z,1.10
2023-01-31T06:56:54.994Z,1.60
2023-01-31T06:59:22.352Z,1.40
2023-01-31T07:01:49.452Z,1.60
2023-01-31T07:04:16.566Z,1.40
2023-01-31T07:06:43.611Z,1.60
2023-01-31T07:09:12.248Z,1.50
2023-01-31T07:11:39.422Z,1.50
2023-01-31T07:16:37.793Z,1.40
2023-01-31T07:19:05.402Z,1.30
2023-01-31T07:21:33.613Z,1.30
2023-01-31T07:24:00.740Z,1.60
2023-01-31T07:26:27.977Z,1.00
2023-01-31T07:28:55.279Z,1.50
2023-01-31T07:31:22.580Z,1.40
2023-01-31T07:33:50.032Z,1.40
2023-01-31T07:36:20.001Z,1.10
2023-01-31T07:38:47.210Z,1.00
2023-01-31T07:41:14.279Z,1.30
2023-01-31T07:43:41.365Z,0.90
2023-01-31T07:46:11.143Z,1.00
2023-01-31T07:48:58.107Z,1.50
2023-01-31T07:51:25.364Z,1.80
2023-01-31T07:53:55.541Z,2.30
2023-01-31T07:56:22.887Z,2.60
2023-01-31T07:58:51.084Z,2.60
2023-01-31T08:01:45.005Z,2.60
2023-01-31T08:04:22.464Z,2.60
2023-01-31T08:06:56.911Z,2.60
2023-01-31T08:09:26.761Z,2.50
2023-01-31T08:11:53.890Z,2.80
2023-01-31T08:14:25.731Z,2.50
2023-01-31T08:16:53.791Z,2.30
2023-01-31T08:19:21.032Z,2.40
2023-01-31T08:21:48.344Z,2.40
2023-01-31T08:24:15.573Z,2.50
2023-01-31T08:26:46.562Z,2.40
2023-01-31T08:29:14.105Z,2.50
2023-01-31T08:31:44.746Z,2.20
2023-01-31T08:34:14.374Z,2.30
2023-01-31T08:36:41.529Z,2.20
2023-01-31T08:39:09.077Z,2.30
2023-01-31T08:41:39.046Z,2.00
2023-01-31T08:44:07.268Z,2.10
2023-01-31T08:46:37.545Z,2.20
2023-01-31T08:49:07.288Z,2.20
2023-01-31T08:51:34.663Z,2.20
2023-01-31T08:54:02.021Z,2.30
2023-01-31T08:56:29.319Z,2.30
2023-01-31T08:58:58.220Z,2.00
2023-01-31T09:01:25.650Z,1.90
2023-01-31T09:03:57.221Z,2.10
2023-01-31T09:06:27.600Z,1.80
2023-01-31T09:08:58.778Z,2.40
2023-01-31T09:11:30.422Z,2.20
2023-01-31T09:13:58.232Z,2.20
2023-01-31T09:16:25.670Z,2.20
2023-01-31T09:18:53.962Z,2.20
2023-01-31T09:21:22.863Z,2.30
2023-01-31T09:23:57.793Z,2.50
2023-01-31T09:26:25.449Z,2.00
2023-01-31T09:28:52.623Z,2.30
2023-01-31T09:31:21.275Z,2.40
2023-01-31T09:33:49.648Z,2.60
2023-01-31T09:36:21.804Z,2.70
2023-01-31T09:38:49.087Z,2.90
2023-01-31T09:41:55.478Z,2.90
2023-01-31T09:44:33.117Z,3.10
2023-01-31T09:47:21.122Z,3.30
2023-01-31T09:49:54.999Z,3.60
2023-01-31T09:52:23.991Z,3.60
2023-01-31T09:54:51.322Z,3.60
2023-01-31T09:57:54.737Z,3.70
2023-01-31T10:00:40.789Z,3.50
2023-01-31T10:03:37.446Z,3.50
2023-01-31T10:06:12.891Z,3.60
2023-01-31T10:09:25.567Z,3.50
2023-01-31T10:12:14.169Z,3.80
2023-01-31T10:14:50.560Z,4.10
2023-01-31T10:17:28.116Z,4.60
2023-01-31T10:20:08.688Z,4.60
2023-01-31T10:23:04.421Z,5.50
2023-01-31T10:26:02.210Z,5.70
2023-01-31T10:29:17.724Z,6.00
2023-01-31T10:32:05.047Z,5.90
2023-01-31T10:35:31.928Z,5.60
2023-01-31T10:38:22.855Z,5.50
2023-01-31T10:40:59.768Z,5.90
2023-01-31T10:43:42.171Z,6.10
2023-01-31T10:46:13.021Z,6.00
2023-01-31T10:48:45.053Z,6.50
2023-01-31T10:51:19.282Z,6.10
2023-01-31T10:54:13.141Z,6.20
2023-01-31T10:56:50.112Z,6.50
2023-01-31T10:59:32.594Z,7.10
2023-01-31T11:02:03.193Z,7.20
2023-01-31T11:04:37.038Z,7.50
2023-01-31T11:07:05.424Z,7.40
2023-01-31T11:09:44.018Z,6.90
2023-01-31T11:12:11.279Z,6.70
2023-01-31T11:14:39.332Z,6.40
2023-01-31T11:17:23.404Z,6.30
2023-01-31T11:19:52.783Z,6.30
2023-01-31T11:22:37.800Z,6.40
2023-01-31T11:25:06.713Z,6.30
2023-01-31T11:27:40.867Z,6.90
2023-01-31T11:30:35.153Z,7.30
2023-01-31T11:33:02.792Z,8.00
2023-01-31T11:35:33.882Z,8.20
2023-01-31T11:38:22.734Z,8.70
2023-01-31T11:40:49.986Z,8.80
2023-01-31T11:43:20.107Z,9.40
2023-01-31T11:45:58.331Z,9.80
2023-01-31T11:48:33.390Z,10.40
2023-01-31T11:51:03.244Z,10.30
2023-01-31T11:53:49.929Z,9.80
2023-01-31T11:56:27.246Z,9.00
2023-01-31T11:59:02.587Z,8.60
2023-01-31T12:01:30.651Z,8.20
2023-01-31T12:04:05.622Z,7.90
2023-01-31T12:06:39.965Z,6.90
2023-01-31T12:09:27.088Z,6.30
2023-01-31T12:12:07.652Z,6.20
2023-01-31T12:14:42.390Z,6.20
2023-01-31T12:17:18.387Z,6.10
2023-01-31T12:20:27.508Z,6.00
2023-01-31T12:23:31.757Z,6.00
2023-01-31T12:26:15.503Z,6.00
2023-01-31T12:29:10.927Z,5.80
2023-01-31T12:31:48.070Z,5.60
2023-01-31T12:35:06.755Z,5.40
2023-01-31T12:37:46.918Z,5.60
2023-01-31T12:40:57.624Z,5.60
2023-01-31T12:43:56.969Z,5.50
2023-01-31T12:47:08.586Z,5.20
2023-01-31T12:49:45.920Z,5.60
2023-01-31T12:52:22.803Z,5.60
2023-01-31T12:55:17.769Z,5.30
2023-01-31T12:58:19.588Z,5.20
2023-01-31T13:01:02.639Z,5.20
2023-01-31T13:03:54.525Z,5.50
2023-01-31T13:06:58.752Z,5.10
2023-01-31T13:09:36.352Z,5.40
2023-01-31T13:12:08.745Z,5.40
2023-01-31T13:14:52.125Z,5.00
2023-01-31T13:17:28.016Z,5.20
2023-01-31T13:20:12.459Z,5.00
2023-01-31T13:22:51.205Z,5.10
2023-01-31T13:26:03.962Z,5.00
2023-01-31T13:28:55.300Z,5.10
2023-01-31T13:31:33.107Z,5.20
2023-01-31T13:34:23.005Z,5.30
2023-01-31T13:37:01.491Z,5.30
2023-01-31T13:39:45.163Z,5.10
2023-01-31T13:42:17.276Z,5.20
2023-01-31T13:44:48.387Z,5.00
2023-01-31T13:47:30.637Z,5.00
2023-01-31T13:50:09.531Z,4.80
2023-01-31T13:52:48.819Z,5.10
2023-01-31T13:55:43.188Z,4.90
2023-01-31T13:58:28.211Z,4.40
2023-01-31T14:01:08.025Z,4.90
2023-01-31T14:04:15.208Z,4.50
2023-01-31T14:07:15.805Z,4.50
2023-01-31T14:10:12.040Z,4.40
2023-01-31T14:12:40.510Z,4.30
2023-01-31T14:15:49.158Z,4.40
2023-01-31T14:18:46.258Z,2.60
2023-01-31T14:21:32.410Z,4.20
2023-01-31T14:24:06.303Z,4.40
2023-01-31T14:26:42.414Z,4.30
2023-01-31T14:29:16.826Z,4.10
2023-01-31T14:31:46.712Z,4.00
2023-01-31T14:34:49.101Z,4.20
2023-01-31T14:37:49.189Z,4.20
2023-01-31T14:40:45.334Z,4.10
2023-01-31T14:43:46.798Z,4.00
2023-01-31T14:47:08.215Z,4.10
2023-01-31T14:50:19.379Z,4.00
2023-01-31T14:53:24.934Z,3.80
2023-01-31T14:56:28.184Z,3.80
2023-01-31T14:58:55.396Z,3.70
2023-01-31T15:01:33.774Z,3.60
2023-01-31T15:04:03.743Z,3.70
2023-01-31T15:06:43.952Z,3.70
2023-01-31T15:09:52.236Z,3.80
2023-01-31T15:13:00.860Z,3.80
2023-01-31T15:15:40.391Z,3.60
2023-01-31T15:18:28.918Z,3.80
2023-01-31T15:21:02.159Z,3.70
2023-01-31T15:23:33.333Z,3.50
2023-01-31T15:26:03.467Z,3.30
2023-01-31T15:28:41.435Z,3.40
2023-01-31T15:31:50.137Z,3.50
2023-01-31T15:34:31.691Z,3.70
2023-01-31T15:37:23.636Z,3.60
2023-01-31T15:40:02.505Z,3.50
2023-01-31T15:42:33.901Z,3.50
2023-01-31T15:45:25.124Z,3.40
2023-01-31T15:48:29.157Z,3.20
2023-01-31T15:50:59.532Z,3.40
2023-01-31T15:53:31.381Z,3.40
2023-01-31T15:56:03.539Z,3.50
2023-01-31T15:58:36.877Z,3.30
2023-01-31T16:01:04.678Z,3.20
2023-01-31T16:03:48.791Z,3.70
2023-01-31T16:06:41.129Z,3.40
2023-01-31T16:09:24.257Z,3.40
2023-01-31T16:11:53.603Z,3.40
2023-01-31T16:14:23.927Z,3.30
2023-01-31T16:16:58.120Z,3.60
2023-01-31T16:19:36.361Z,3.40
2023-01-31T16:22:19.164Z,3.70
2023-01-31T16:24:58.917Z,3.30
2023-01-31T16:27:38.299Z,3.60
2023-01-31T16:30:06.635Z,3.50
2023-01-31T16:32:44.186Z,3.50
2023-01-31T16:35:31.345Z,3.60
2023-01-31T16:38:26.925Z,3.40
2023-01-31T16:41:03.738Z,3.40
2023-01-31T16:43:34.088Z,3.50
2023-01-31T16:46:21.285Z,3.30
2023-01-31T16:49:28.855Z,3.50
2023-01-31T16:52:13.930Z,3.30
2023-01-31T16:55:02.190Z,3.60
2023-01-31T16:57:38.313Z,3.40
2023-01-31T17:00:29.015Z,3.70
2023-01-31T17:02:59.432Z,3.60
2023-01-31T17:05:42.367Z,3.50
2023-01-31T17:08:20.438Z,3.10
2023-01-31T17:10:49.613Z,3.30
2023-01-31T17:13:26.451Z,3.30
2023-01-31T17:15:53.786Z,3.40
2023-01-31T17:18:21.100Z,3.30
2023-01-31T17:20:50.962Z,3.20
2023-01-31T17:23:19.101Z,3.20
2023-01-31T17:25:47.663Z,3.20
2023-01-31T17:28:14.882Z,3.10
2023-01-31T17:30:44.971Z,3.10
2023-01-31T17:33:16.147Z,3.20
2023-01-31T17:35:50.301Z,3.20
2023-01-31T17:38:21.260Z,3.20
2023-01-31T17:40:54.178Z,3.00
2023-01-31T17:43:26.192Z,3.10
2023-01-31T17:45:53.643Z,3.10
2023-01-31T17:48:26.728Z,3.00
2023-01-31T17:50:55.133Z,3.00
2023-01-31T17:53:22.732Z,3.10
2023-01-31T17:55:52.356Z,3.00
2023-01-31T17:58:19.619Z,3.10
2023-01-31T18:00:47.144Z,2.70
2023-01-31T18:03:19.355Z,3.10
2023-01-31T18:05:47.403Z,2.80
2023-01-31T18:08:15.836Z,3.00
2023-01-31T18:10:44.178Z,3.00
2023-01-31T18:13:11.745Z,3.00
2023-01-31T18:15:40.224Z,2.90
2023-01-31T18:18:08.901Z,2.60
2023-01-31T18:20:38.887Z,2.90
2023-01-31T18:23:06.961Z,2.70
2023-01-31T18:25:34.112Z,2.60
2023-01-31T18:28:01.254Z,2.70
2023-01-31T18:30:28.520Z,2.90
2023-01-31T18:32:55.864Z,2.60
2023-01-31T18:35:23.368Z,2.60
2023-01-31T18:37:50.716Z,2.70
2023-01-31T18:40:18.180Z,2.50
2023-01-31T18:42:45.182Z,2.60
2023-01-31T18:45:12.469Z,2.00
2023-01-31T18:47:39.591Z,2.10
2023-01-31T18:50:07.749Z,1.90
2023-01-31T18:52:35.950Z,3.00
2023-01-31T18:55:03.156Z,2.30
2023-01-31T18:57:30.430Z,2.40
2023-01-31T18:59:57.661Z,2.40
2023-01-31T19:02:24.890Z,2.30
2023-01-31T19:04:52.019Z,2.40
2023-01-31T19:07:19.192Z,2.20
2023-01-31T19:09:47.567Z,2.30
2023-01-31T19:12:14.663Z,2.30
2023-01-31T19:14:41.808Z,2.20
2023-01-31T19:17:08.950Z,2.00
2023-01-31T19:19:36.723Z,2.30
2023-01-31T19:22:03.949Z,2.20
2023-01-31T19:24:31.137Z,2.50
2023-01-31T19:26:58.276Z,1.90
2023-01-31T19:29:25.457Z,2.00
2023-01-31T19:31:55.216Z,1.80
2023-01-31T19:34:22.412Z,1.80
2023-01-31T19:36:49.597Z,2.10
2023-01-31T19:39:16.840Z,2.10
2023-01-31T19:41:44.064Z,2.20
2023-01-31T19:44:11.797Z,2.00
2023-01-31T19:46:39.071Z,2.10
2023-01-31T19:49:06.302Z,1.70
2023-01-31T19:51:33.909Z,2.10
2023-01-31T19:54:03.021Z,3.20
2023-01-31T19:56:31.939Z,2.00
2023-01-31T19:59:00.509Z,2.00
2023-01-31T20:01:27.959Z,1.80
2023-01-31T20:03:55.645Z,1.90
2023-01-31T20:06:29.058Z,1.60
2023-01-31T20:09:04.359Z,1.70
2023-01-31T20:14:00.398Z,1.90
2023-01-31T20:16:29.332Z,1.90
2023-01-31T20:18:56.840Z,1.50
2023-01-31T20:21:30.406Z,2.00
2023-01-31T20:23:57.672Z,1.90
2023-01-31T20:26:26.458Z,1.60
2023-01-31T20:28:53.787Z,1.50
2023-01-31T20:31:21.237Z,1.90
2023-01-31T20:33:51.177Z,1.50
2023-01-31T20:36:22.087Z,1.90
2023-01-31T20:38:50.514Z,1.80
2023-01-31T20:41:17.722Z,1.70
2023-01-31T20:43:45.231Z,1.50
2023-01-31T20:46:15.194Z,1.90
2023-01-31T20:48:43.316Z,1.70
2023-01-31T20:51:10.579Z,1.80
2023-01-31T20:53:38.670Z,1.90
2023-01-31T20:56:10.910Z,1.70
2023-01-31T20:58:41.436Z,2.00
2023-01-31T21:01:10.911Z,1.60
2023-01-31T21:03:38.214Z,1.80
2023-01-31T21:06:14.640Z,1.80
2023-01-31T21:08:42.022Z,2.00
2023-01-31T21:11:13.214Z,1.90
2023-01-31T21:13:42.077Z,1.90
2023-01-31T21:16:11.854Z,1.90
2023-01-31T21:18:44.118Z,1.70
2023-01-31T21:26:58.598Z,1.50
2023-01-31T21:29:51.961Z,1.80
2023-01-31T21:32:19.221Z,1.90
2023-01-31T21:34:46.324Z,1.70
2023-01-31T21:37:13.515Z,1.70
2023-01-31T21:42:52.438Z,1.50
2023-01-31T21:45:39.959Z,1.70
2023-01-31T21:48:39.517Z,1.60
2023-01-31T21:51:17.729Z,1.80
2023-01-31T21:53:50.771Z,1.80
2023-01-31T21:56:22.166Z,1.30
2023-01-31T21:59:00.296Z,1.80
2023-01-31T22:01:41.330Z,1.80
2023-01-31T22:04:12.607Z,1.90
2023-01-31T22:06:52.565Z,1.60
2023-01-31T22:09:27.223Z,1.80
2023-01-31T22:11:54.623Z,1.90
2023-01-31T22:14:21.821Z,1.80
2023-01-31T22:16:50.206Z,1.60
2023-01-31T22:19:17.394Z,1.60
2023-01-31T22:21:44.572Z,1.80
2023-01-31T22:26:43.654Z,1.70
2023-01-31T22:29:15.673Z,2.00
2023-01-31T22:31:44.069Z,1.70
2023-01-31T22:34:16.390Z,1.70
2023-01-31T22:36:43.957Z,1.80
2023-01-31T22:39:13.499Z,1.70
2023-01-31T22:41:40.602Z,1.80
2023-01-31T22:44:07.776Z,2.10
2023-01-31T22:46:34.841Z,1.90
2023-01-31T22:49:02.198Z,1.50
2023-01-31T22:51:29.962Z,1.80
2023-01-31T22:53:58.316Z,1.60
2023-01-31T22:56:32.161Z,1.80
2023-01-31T22:59:05.360Z,1.60
2023-01-31T23:01:37.129Z,1.90
2023-01-31T23:04:08.874Z,1.70
2023-01-31T23:06:37.853Z,1.80
2023-01-31T23:09:05.516Z,1.80
2023-01-31T23:11:33.059Z,1.50
2023-01-31T23:14:00.241Z,1.90
2023-01-31T23:16:46.249Z,1.90
2023-01-31T23:19:16.085Z,1.60
2023-01-31T23:21:44.499Z,1.60
2023-01-31T23:24:14.908Z,1.90
2023-01-31T23:26:43.531Z,2.10
2023-01-31T23:29:11.469Z,1.70
2023-01-31T23:34:07.725Z,2.10
2023-01-31T23:36:35.342Z,2.00
2023-01-31T23:39:02.440Z,2.10
2023-01-31T23:41:29.739Z,2.10
2023-01-31T23:43:56.822Z,2.20
2023-01-31T23:46:24.126Z,2.10
2023-01-31T23:48:51.215Z,2.10
2023-01-31T23:51:18.442Z,2.10
2023-01-31T23:53:45.518Z,2.10
2023-01-31T23:56:12.638Z,2.00
2023-01-31T23:58:39.751Z,1.80
